createdAt,value
2023-01-17T00:02:15.526Z,3.07
2023-01-17T00:05:01.257Z,4.50
2023-01-17T00:07:47.005Z,2.10
2023-01-17T00:10:17.674Z,5.00
2023-01-17T00:12:48.109Z,3.03
2023-01-17T00:15:19.531Z,4.97
2023-01-17T00:17:47.909Z,5.17
2023-01-17T00:20:34.084Z,2.67
2023-01-17T00:23:20.094Z,3.03
2023-01-17T00:26:05.164Z,4.23
2023-01-17T00:28:32.816Z,2.60
2023-01-17T00:30:59.981Z,2.93
2023-01-17T00:33:27.234Z,5.70
2023-01-17T00:35:54.869Z,5.80
2023-01-17T00:38:22.813Z,2.30
2023-01-17T00:40:51.464Z,3.23
2023-01-17T00:43:38.379Z,4.07
2023-01-17T00:46:24.407Z,3.17
2023-01-17T00:49:10.740Z,4.67
2023-01-17T00:51:56.682Z,3.07
2023-01-17T00:54:42.565Z,5.43
2023-01-17T00:57:29.880Z,4.17
2023-01-17T01:00:15.814Z,4.97
2023-01-17T01:03:01.655Z,6.40
2023-01-17T01:05:47.539Z,8.70
2023-01-17T01:08:37.643Z,9.33
2023-01-17T01:11:27.811Z,5.80
2023-01-17T01:14:15.458Z,5.10
2023-01-17T01:17:01.420Z,11.80
2023-01-17T01:19:47.349Z,7.10
2023-01-17T01:22:33.040Z,5.77
2023-01-17T01:25:19.128Z,8.03
2023-01-17T01:28:05.135Z,8.50
2023-01-17T01:30:52.333Z,11.93
2023-01-17T01:33:19.470Z,6.13
2023-01-17T01:35:48.428Z,6.37
2023-01-17T01:38:16.559Z,9.43
2023-01-17T01:40:45.545Z,12.90
2023-01-17T01:43:15.145Z,9.50
2023-01-17T01:45:46.431Z,6.13
2023-01-17T01:48:21.761Z,8.40
2023-01-17T01:50:50.511Z,4.23
2023-01-17T01:53:19.740Z,12.43
2023-01-17T01:55:49.284Z,9.13
2023-01-17T01:58:20.530Z,6.13
2023-01-17T02:00:50.223Z,8.17
2023-01-17T02:03:20.258Z,5.63
2023-01-17T02:05:48.613Z,8.07
2023-01-17T02:08:18.062Z,7.80
2023-01-17T02:10:46.321Z,10.63
2023-01-17T02:13:16.119Z,10.53
2023-01-17T02:15:51.203Z,5.33
2023-01-17T02:18:23.529Z,9.20
2023-01-17T02:20:58.971Z,6.17
2023-01-17T02:23:44.040Z,4.97
2023-01-17T02:26:26.145Z,7.83
2023-01-17T02:29:05.728Z,8.40
2023-01-17T02:31:38.264Z,4.80
2023-01-17T02:34:08.492Z,8.53
2023-01-17T02:36:38.610Z,6.50
2023-01-17T02:39:10.267Z,10.80
2023-01-17T02:41:39.262Z,10.07
2023-01-17T02:44:09.867Z,8.43
2023-01-17T02:46:46.385Z,7.83
2023-01-17T02:49:14.767Z,5.67
2023-01-17T02:51:52.278Z,9.93
2023-01-17T02:54:35.328Z,9.47
2023-01-17T02:57:12.025Z,6.80
2023-01-17T02:59:45.291Z,9.63
2023-01-17T03:02:18.592Z,11.93
2023-01-17T03:04:50.551Z,9.77
2023-01-17T03:07:21.641Z,7.00
2023-01-17T03:09:53.445Z,12.37
2023-01-17T03:12:21.906Z,11.10
2023-01-17T03:14:50.041Z,9.20
2023-01-17T03:17:19.635Z,11.47
2023-01-17T03:19:47.794Z,8.67
2023-01-17T03:22:15.964Z,8.87
2023-01-17T03:24:44.201Z,8.30
2023-01-17T03:27:12.362Z,8.67
2023-01-17T03:29:40.516Z,12.20
2023-01-17T03:32:08.742Z,10.93
2023-01-17T03:34:38.227Z,9.00
2023-01-17T03:37:06.379Z,10.73
2023-01-17T03:39:34.525Z,10.50
2023-01-17T03:42:02.700Z,8.23
2023-01-17T03:44:30.873Z,9.03
2023-01-17T03:46:59.011Z,8.90
2023-01-17T03:49:27.245Z,9.70
2023-01-17T03:51:56.768Z,7.83
2023-01-17T03:54:24.904Z,8.23
2023-01-17T03:56:53.048Z,9.93
2023-01-17T03:59:21.201Z,8.17
2023-01-17T04:01:49.476Z,8.67
2023-01-17T04:04:17.752Z,10.77
2023-01-17T04:06:47.887Z,8.07
2023-01-17T04:09:17.358Z,8.47
2023-01-17T04:11:45.492Z,9.27
2023-01-17T04:14:13.616Z,8.47
2023-01-17T04:16:41.857Z,9.07
2023-01-17T04:19:11.109Z,9.23
2023-01-17T04:21:39.236Z,6.70
2023-01-17T04:24:07.950Z,8.90
2023-01-17T04:26:37.588Z,5.73
2023-01-17T04:29:05.770Z,9.47
2023-01-17T04:31:33.924Z,8.77
2023-01-17T04:34:02.121Z,9.63
2023-01-17T04:36:30.254Z,8.87
2023-01-17T04:38:58.387Z,7.63
2023-01-17T04:41:26.543Z,7.63
2023-01-17T04:43:56.053Z,6.07
2023-01-17T04:46:24.244Z,7.73
2023-01-17T04:48:52.417Z,10.13
2023-01-17T04:51:20.617Z,7.00
2023-01-17T04:53:48.811Z,7.27
2023-01-17T04:56:16.988Z,8.27
2023-01-17T04:58:45.134Z,8.43
2023-01-17T05:01:14.818Z,8.60
2023-01-17T05:03:43.110Z,8.33
2023-01-17T05:06:11.332Z,7.00
2023-01-17T05:08:39.501Z,8.27
2023-01-17T05:11:07.898Z,7.73
2023-01-17T05:13:36.138Z,9.83
2023-01-17T05:16:04.375Z,11.10
2023-01-17T05:18:33.915Z,10.50
2023-01-17T05:21:05.489Z,8.00
2023-01-17T05:23:33.969Z,9.37
2023-01-17T05:26:05.070Z,7.33
2023-01-17T05:28:33.260Z,8.90
2023-01-17T05:31:01.556Z,6.77
2023-01-17T05:33:29.807Z,8.33
2023-01-17T05:35:59.421Z,8.50
2023-01-17T05:38:27.587Z,8.47
2023-01-17T05:40:55.831Z,9.70
2023-01-17T05:43:23.992Z,8.03
2023-01-17T05:45:52.134Z,9.67
2023-01-17T05:48:20.519Z,11.40
2023-01-17T05:50:49.050Z,13.07
2023-01-17T05:53:18.917Z,11.50
2023-01-17T05:55:47.679Z,10.03
2023-01-17T05:58:17.167Z,8.43
2023-01-17T06:00:45.549Z,8.07
2023-01-17T06:03:13.990Z,8.83
2023-01-17T06:05:42.486Z,9.43
2023-01-17T06:08:10.836Z,6.03
2023-01-17T06:10:40.611Z,10.47
2023-01-17T06:13:09.657Z,11.13
2023-01-17T06:15:38.829Z,9.90
2023-01-17T06:18:07.468Z,9.90
2023-01-17T06:20:35.690Z,11.00
2023-01-17T06:23:04.500Z,11.20
2023-01-17T06:25:33.027Z,11.17
2023-01-17T06:28:03.099Z,14.60
2023-01-17T06:30:31.250Z,12.30
2023-01-17T06:32:59.409Z,8.47
2023-01-17T06:35:27.607Z,12.17
2023-01-17T06:37:58.104Z,13.33
2023-01-17T06:40:26.736Z,9.60
2023-01-17T06:42:54.886Z,9.27
2023-01-17T06:45:24.566Z,10.43
2023-01-17T06:47:52.739Z,12.50
2023-01-17T06:50:21.000Z,12.47
2023-01-17T06:52:55.867Z,14.40
2023-01-17T06:55:24.125Z,14.87
2023-01-17T06:57:52.307Z,15.77
2023-01-17T07:00:20.847Z,14.33
2023-01-17T07:02:52.158Z,9.67
2023-01-17T07:05:20.777Z,10.77
2023-01-17T07:07:49.014Z,11.33
2023-01-17T07:10:17.612Z,10.50
2023-01-17T07:12:45.752Z,13.70
2023-01-17T07:15:14.253Z,13.13
2023-01-17T07:17:42.439Z,11.20
2023-01-17T07:20:13.409Z,13.10
2023-01-17T07:22:41.598Z,13.10
2023-01-17T07:25:10.167Z,13.33
2023-01-17T07:27:38.410Z,10.37
2023-01-17T07:30:07.009Z,12.30
2023-01-17T07:32:35.239Z,13.47
2023-01-17T07:35:03.381Z,14.40
2023-01-17T07:37:32.866Z,10.50
2023-01-17T07:40:02.464Z,13.63
2023-01-17T07:42:30.886Z,13.03
2023-01-17T07:45:00.578Z,14.23
2023-01-17T07:47:28.743Z,13.03
2023-01-17T07:49:56.888Z,12.70
2023-01-17T07:52:25.063Z,11.97
2023-01-17T07:54:54.570Z,14.03
2023-01-17T07:57:22.766Z,11.63
2023-01-17T07:59:52.181Z,13.47
2023-01-17T08:02:21.473Z,12.17
2023-01-17T08:04:50.100Z,12.60
2023-01-17T08:07:18.405Z,12.47
2023-01-17T08:09:49.578Z,11.57
2023-01-17T08:12:19.294Z,14.50
2023-01-17T08:14:47.422Z,9.40
2023-01-17T08:17:16.968Z,9.33
2023-01-17T08:19:45.689Z,11.07
2023-01-17T08:22:13.858Z,15.03
2023-01-17T08:24:43.069Z,10.47
2023-01-17T08:27:11.215Z,9.33
2023-01-17T08:29:42.776Z,8.27
2023-01-17T08:32:10.949Z,7.40
2023-01-17T08:34:39.104Z,7.47
2023-01-17T08:37:07.308Z,8.20
2023-01-17T08:39:35.451Z,6.73
2023-01-17T08:42:03.662Z,9.93
2023-01-17T08:44:31.819Z,8.00
2023-01-17T08:47:01.391Z,6.87
2023-01-17T08:49:29.561Z,5.67
2023-01-17T08:51:57.710Z,8.60
2023-01-17T08:54:25.848Z,6.77
2023-01-17T08:56:55.511Z,6.20
2023-01-17T08:59:23.769Z,5.93
2023-01-17T09:01:52.551Z,6.23
2023-01-17T09:04:22.264Z,8.00
2023-01-17T09:06:50.444Z,5.03
2023-01-17T09:09:18.858Z,5.87
2023-01-17T09:11:47.073Z,4.10
2023-01-17T09:14:15.466Z,3.87
2023-01-17T09:16:43.747Z,4.33
2023-01-17T09:19:11.987Z,7.03
2023-01-17T09:21:41.468Z,5.13
2023-01-17T09:24:09.710Z,5.20
2023-01-17T09:26:37.858Z,5.67
2023-01-17T09:29:06.043Z,5.63
2023-01-17T09:31:34.222Z,3.80
2023-01-17T09:34:02.371Z,5.20
2023-01-17T09:36:31.724Z,7.50
2023-01-17T09:39:01.484Z,4.27
2023-01-17T09:41:31.556Z,4.33
2023-01-17T09:44:03.216Z,5.73
2023-01-17T09:46:32.580Z,6.00
2023-01-17T09:49:04.645Z,6.17
2023-01-17T09:51:33.118Z,4.83
2023-01-17T09:54:03.399Z,9.03
2023-01-17T09:56:33.075Z,5.00
2023-01-17T09:59:10.891Z,6.70
2023-01-17T10:01:44.568Z,6.43
2023-01-17T10:04:19.235Z,6.83
2023-01-17T10:06:52.904Z,6.70
2023-01-17T10:09:38.960Z,6.03
2023-01-17T10:12:15.979Z,6.50
2023-01-17T10:14:58.124Z,6.37
2023-01-17T10:17:36.227Z,5.60
2023-01-17T10:20:09.951Z,6.07
2023-01-17T10:22:51.156Z,5.80
2023-01-17T10:25:33.208Z,4.63
2023-01-17T10:28:06.308Z,4.30
2023-01-17T10:30:36.719Z,8.57
2023-01-17T10:33:08.137Z,5.50
2023-01-17T10:35:38.806Z,7.37
2023-01-17T10:38:09.153Z,11.97
2023-01-17T10:40:42.436Z,6.40
2023-01-17T10:43:15.216Z,5.73
2023-01-17T10:45:45.360Z,5.07
2023-01-17T10:48:17.221Z,6.10
2023-01-17T10:50:50.622Z,9.93
2023-01-17T10:53:24.131Z,5.73
2023-01-17T10:55:54.280Z,6.40
2023-01-17T10:58:23.773Z,4.47
2023-01-17T11:00:53.998Z,8.30
2023-01-17T11:03:23.826Z,7.47
2023-01-17T11:06:08.192Z,5.03
2023-01-17T11:08:51.096Z,4.00
2023-01-17T11:11:19.602Z,6.30
2023-01-17T11:13:50.333Z,4.93
2023-01-17T11:16:21.058Z,4.10
2023-01-17T11:18:50.260Z,4.30
2023-01-17T11:21:20.207Z,3.20
2023-01-17T11:23:49.263Z,3.97
2023-01-17T11:26:24.869Z,5.03
2023-01-17T11:28:54.768Z,5.10
2023-01-17T11:31:27.231Z,3.30
2023-01-17T11:34:09.478Z,3.97
2023-01-17T11:36:37.710Z,3.60
2023-01-17T11:39:06.973Z,4.43
2023-01-17T11:41:36.199Z,4.20
2023-01-17T11:44:21.221Z,4.07
2023-01-17T11:46:49.735Z,3.60
2023-01-17T11:49:24.754Z,4.83
2023-01-17T11:51:56.031Z,4.10
2023-01-17T11:54:26.720Z,4.13
2023-01-17T11:56:58.679Z,5.60
2023-01-17T11:59:31.502Z,2.37
2023-01-17T12:02:06.535Z,3.83
2023-01-17T12:04:37.240Z,3.37
2023-01-17T12:07:26.422Z,3.03
2023-01-17T12:10:00.796Z,5.47
2023-01-17T12:12:52.193Z,3.87
2023-01-17T12:15:27.468Z,2.47
2023-01-17T12:18:06.046Z,6.27
2023-01-17T12:20:38.128Z,4.40
2023-01-17T12:23:20.008Z,5.30
2023-01-17T12:25:54.524Z,1.90
2023-01-17T12:28:32.857Z,2.70
2023-01-17T12:31:07.688Z,3.33
2023-01-17T12:33:39.734Z,2.83
2023-01-17T12:36:17.704Z,3.83
2023-01-17T12:38:46.388Z,3.53
2023-01-17T12:41:18.656Z,1.73
2023-01-17T12:43:46.951Z,1.80
2023-01-17T12:46:21.345Z,1.73
2023-01-17T12:48:52.322Z,1.47
2023-01-17T12:51:24.122Z,3.23
2023-01-17T12:53:57.608Z,3.67
2023-01-17T12:56:28.414Z,3.47
2023-01-17T12:58:57.798Z,3.13
2023-01-17T13:01:31.819Z,2.77
2023-01-17T13:04:04.667Z,2.40
2023-01-17T13:06:44.742Z,5.60
2023-01-17T13:09:14.979Z,2.23
2023-01-17T13:11:46.445Z,2.17
2023-01-17T13:14:14.598Z,4.83
2023-01-17T13:16:46.276Z,4.30
2023-01-17T13:19:17.608Z,2.90
2023-01-17T13:21:48.905Z,5.10
2023-01-17T13:24:23.947Z,2.13
2023-01-17T13:27:01.720Z,2.70
2023-01-17T13:29:35.165Z,2.83
2023-01-17T13:32:07.731Z,3.00
2023-01-17T13:34:54.731Z,5.43
2023-01-17T13:37:43.546Z,3.10
2023-01-17T13:40:29.331Z,2.57
2023-01-17T13:42:59.615Z,3.17
2023-01-17T13:45:29.008Z,4.40
2023-01-17T13:48:12.380Z,4.50
2023-01-17T13:50:52.941Z,3.53
2023-01-17T13:53:54.915Z,3.80
2023-01-17T13:56:31.130Z,4.57
2023-01-17T13:59:02.635Z,1.50
2023-01-17T14:01:45.805Z,4.97
2023-01-17T14:04:14.200Z,1.77
2023-01-17T14:06:45.273Z,9.07
2023-01-17T14:09:15.927Z,1.57
2023-01-17T14:12:01.892Z,1.83
2023-01-17T14:14:37.087Z,1.93
2023-01-17T14:17:25.627Z,2.47
2023-01-17T14:19:54.772Z,1.83
2023-01-17T14:22:26.352Z,2.20
2023-01-17T14:25:02.624Z,2.60
2023-01-17T14:27:34.565Z,2.17
2023-01-17T14:30:04.713Z,1.80
2023-01-17T14:32:34.211Z,6.03
2023-01-17T14:35:02.662Z,3.27
2023-01-17T14:37:47.398Z,2.10
2023-01-17T14:40:16.679Z,3.90
2023-01-17T14:42:44.858Z,2.93
2023-01-17T14:45:15.366Z,1.60
2023-01-17T14:47:45.593Z,2.87
2023-01-17T14:50:20.533Z,5.90
2023-01-17T14:52:50.414Z,4.70
2023-01-17T14:55:20.114Z,5.00
2023-01-17T14:57:55.835Z,1.77
2023-01-17T15:00:25.399Z,2.43
2023-01-17T15:02:54.921Z,5.73
2023-01-17T15:05:24.358Z,5.57
2023-01-17T15:07:54.916Z,4.97
2023-01-17T15:10:23.932Z,2.97
2023-01-17T15:12:52.579Z,3.73
2023-01-17T15:15:32.129Z,2.20
2023-01-17T15:18:10.168Z,3.10
2023-01-17T15:20:39.487Z,4.30
2023-01-17T15:23:12.115Z,3.80
2023-01-17T15:25:40.282Z,1.27
2023-01-17T15:28:11.537Z,2.43
2023-01-17T15:30:39.841Z,4.13
2023-01-17T15:33:08.003Z,5.03
2023-01-17T15:35:36.160Z,5.63
2023-01-17T15:38:05.412Z,11.23
2023-01-17T15:40:37.668Z,4.90
2023-01-17T15:43:06.705Z,4.93
2023-01-17T15:45:36.112Z,4.83
2023-01-17T15:48:19.185Z,4.33
2023-01-17T15:50:47.401Z,7.13
2023-01-17T15:53:30.641Z,11.60
2023-01-17T15:56:00.552Z,4.00
2023-01-17T15:58:29.759Z,7.30
2023-01-17T16:00:58.556Z,7.67
2023-01-17T16:03:29.185Z,4.70
2023-01-17T16:06:00.113Z,10.20
2023-01-17T16:08:30.078Z,6.33
2023-01-17T16:11:02.148Z,3.40
2023-01-17T16:13:31.295Z,4.83
2023-01-17T16:16:17.309Z,6.80
2023-01-17T16:18:46.511Z,8.53
2023-01-17T16:21:22.875Z,8.23
2023-01-17T16:23:51.351Z,6.57
2023-01-17T16:26:20.932Z,11.97
2023-01-17T16:28:49.446Z,9.53
2023-01-17T16:31:17.831Z,5.97
2023-01-17T16:33:46.854Z,8.13
2023-01-17T16:36:16.469Z,6.40
2023-01-17T16:38:45.018Z,8.23
2023-01-17T16:41:13.261Z,6.57
2023-01-17T16:43:42.926Z,7.00
2023-01-17T16:46:12.627Z,7.30
2023-01-17T16:48:40.840Z,6.73
2023-01-17T16:51:09.121Z,8.03
2023-01-17T16:53:37.591Z,14.77
2023-01-17T16:56:11.812Z,12.93
2023-01-17T16:58:40.024Z,9.90
2023-01-17T17:01:11.604Z,6.50
2023-01-17T17:03:39.899Z,7.63
2023-01-17T17:06:08.350Z,9.00
2023-01-17T17:08:36.712Z,8.53
2023-01-17T17:11:13.756Z,6.53
2023-01-17T17:13:42.236Z,7.17
2023-01-17T17:16:14.076Z,10.53
2023-01-17T17:18:42.539Z,10.63
2023-01-17T17:21:10.764Z,5.87
2023-01-17T17:23:39.159Z,8.87
2023-01-17T17:26:07.532Z,6.93
2023-01-17T17:28:36.720Z,8.40
2023-01-17T17:31:06.201Z,7.97
2023-01-17T17:33:36.855Z,7.17
2023-01-17T17:36:05.771Z,7.87
2023-01-17T17:38:35.827Z,7.33
2023-01-17T17:41:09.239Z,6.20
2023-01-17T17:43:38.285Z,8.80
2023-01-17T17:46:06.525Z,8.47
2023-01-17T17:48:36.080Z,8.13
2023-01-17T17:51:04.882Z,8.83
2023-01-17T17:53:33.374Z,5.87
2023-01-17T17:56:05.362Z,7.57
2023-01-17T17:58:34.727Z,9.57
2023-01-17T18:01:06.719Z,8.03
2023-01-17T18:03:36.295Z,10.97
2023-01-17T18:06:05.588Z,8.90
2023-01-17T18:08:33.888Z,6.37
2023-01-17T18:11:02.871Z,8.53
2023-01-17T18:17:21.631Z,11.07
2023-01-17T18:19:52.533Z,13.00
2023-01-17T18:22:20.725Z,14.30
2023-01-17T18:24:48.901Z,13.53
2023-01-17T18:27:17.068Z,9.03
2023-01-17T18:29:45.222Z,12.53
2023-01-17T18:32:13.342Z,10.73
2023-01-17T18:34:42.374Z,10.33
2023-01-17T18:37:11.902Z,10.53
2023-01-17T18:39:40.104Z,8.93
2023-01-17T18:42:08.535Z,9.63
2023-01-17T18:44:36.699Z,10.23
2023-01-17T18:47:05.480Z,9.07
2023-01-17T18:49:34.023Z,5.97
2023-01-17T18:52:02.289Z,8.47
2023-01-17T18:54:31.866Z,11.33
2023-01-17T18:57:01.088Z,11.20
2023-01-17T18:59:29.255Z,9.87
2023-01-17T19:01:58.659Z,13.73
2023-01-17T19:04:28.339Z,11.57
2023-01-17T19:06:56.557Z,16.03
2023-01-17T19:09:24.735Z,12.53
2023-01-17T19:11:54.237Z,10.93
2023-01-17T19:14:22.632Z,9.30
2023-01-17T19:16:50.896Z,15.00
2023-01-17T19:19:19.142Z,9.83
2023-01-17T19:21:47.290Z,16.20
2023-01-17T19:24:15.444Z,12.00
2023-01-17T19:26:43.941Z,11.17
2023-01-17T19:29:13.494Z,9.70
2023-01-17T19:31:42.928Z,9.90
2023-01-17T19:34:13.657Z,9.73
2023-01-17T19:36:41.895Z,16.77
2023-01-17T19:39:10.495Z,15.43
2023-01-17T19:41:42.049Z,14.73
2023-01-17T19:44:10.914Z,21.93
2023-01-17T19:46:40.420Z,20.20
2023-01-17T19:49:09.264Z,17.10
2023-01-17T19:51:39.244Z,16.27
2023-01-17T19:54:08.231Z,18.90
2023-01-17T19:56:36.682Z,16.47
2023-01-17T19:59:05.048Z,17.17
2023-01-17T20:01:34.364Z,18.77
2023-01-17T20:04:04.479Z,14.63
2023-01-17T20:06:34.343Z,15.30
2023-01-17T20:09:02.512Z,16.17
2023-01-17T20:11:30.784Z,12.70
2023-01-17T20:14:00.448Z,20.10
2023-01-17T20:16:29.674Z,15.53
2023-01-17T20:18:58.710Z,14.83
2023-01-17T20:21:29.133Z,13.80
2023-01-17T20:23:58.134Z,15.67
2023-01-17T20:26:30.840Z,15.23
2023-01-17T20:28:59.015Z,16.37
2023-01-17T20:31:28.381Z,12.93
2023-01-17T20:33:59.552Z,16.33
2023-01-17T20:36:29.961Z,18.53
2023-01-17T20:38:58.167Z,15.33
2023-01-17T20:41:27.025Z,18.40
2023-01-17T20:43:56.721Z,15.03
2023-01-17T20:46:25.534Z,17.53
2023-01-17T20:48:54.793Z,12.67
2023-01-17T20:51:23.976Z,14.63
2023-01-17T20:53:54.123Z,16.53
2023-01-17T20:56:22.300Z,17.90
2023-01-17T20:58:51.629Z,15.90
2023-01-17T21:01:21.052Z,15.37
2023-01-17T21:03:51.447Z,14.50
2023-01-17T21:06:20.057Z,13.83
2023-01-17T21:08:48.513Z,11.77
2023-01-17T21:11:18.705Z,17.90
2023-01-17T21:13:48.545Z,13.57
2023-01-17T21:16:17.700Z,10.80
2023-01-17T21:18:48.101Z,17.27
2023-01-17T21:21:16.968Z,15.07
2023-01-17T21:23:45.339Z,14.77
2023-01-17T21:26:14.653Z,13.57
2023-01-17T21:28:45.019Z,20.97
2023-01-17T21:31:20.330Z,15.47
2023-01-17T21:33:48.745Z,12.97
2023-01-17T21:36:17.221Z,16.60
2023-01-17T21:38:49.493Z,16.43
2023-01-17T21:41:17.668Z,13.37
2023-01-17T21:43:47.206Z,11.40
2023-01-17T21:46:15.419Z,18.83
2023-01-17T21:48:44.573Z,17.57
2023-01-17T21:51:13.014Z,21.27
2023-01-17T21:53:41.529Z,16.43
2023-01-17T21:56:30.002Z,18.63
2023-01-17T21:58:59.874Z,20.10
2023-01-17T22:01:29.265Z,18.10
2023-01-17T22:03:58.397Z,34.50
2023-01-17T22:06:27.538Z,19.17
2023-01-17T22:08:56.051Z,14.60
2023-01-17T22:11:25.065Z,15.40
2023-01-17T22:13:53.610Z,17.90
2023-01-17T22:16:24.244Z,20.07
2023-01-17T22:18:52.548Z,15.73
2023-01-17T22:21:21.576Z,16.20
2023-01-17T22:23:50.324Z,22.07
2023-01-17T22:26:18.708Z,11.37
2023-01-17T22:28:47.125Z,12.23
2023-01-17T22:31:16.561Z,14.20
2023-01-17T22:33:47.425Z,10.10
2023-01-17T22:36:16.024Z,16.43
2023-01-17T22:38:44.576Z,12.13
2023-01-17T22:41:16.003Z,16.77
2023-01-17T22:43:44.934Z,15.57
2023-01-17T22:46:14.563Z,16.33
2023-01-17T22:48:43.073Z,14.43
2023-01-17T22:51:13.526Z,21.67
2023-01-17T22:53:42.263Z,21.50
2023-01-17T22:56:12.063Z,21.23
2023-01-17T22:58:42.211Z,19.97
2023-01-17T23:01:11.666Z,20.70
2023-01-17T23:03:40.640Z,14.17
2023-01-17T23:06:09.928Z,15.83
2023-01-17T23:08:39.899Z,19.60
2023-01-17T23:11:40.503Z,16.60
2023-01-17T23:14:09.898Z,19.37
2023-01-17T23:16:56.071Z,19.50
2023-01-17T23:19:24.458Z,16.10
2023-01-17T23:22:10.813Z,17.20
2023-01-17T23:24:42.992Z,16.60
2023-01-17T23:27:30.276Z,18.53
2023-01-17T23:29:58.425Z,20.83
2023-01-17T23:32:26.989Z,13.53
2023-01-17T23:34:55.344Z,14.67
2023-01-17T23:37:44.887Z,13.93
2023-01-17T23:40:14.845Z,11.77
2023-01-17T23:43:01.066Z,14.77
2023-01-17T23:45:29.545Z,12.70
2023-01-17T23:47:57.728Z,14.27
2023-01-17T23:50:25.899Z,16.17
2023-01-17T23:52:54.114Z,12.73
2023-01-17T23:55:24.047Z,13.80
2023-01-17T23:57:52.731Z,14.97
